Wetterdaten: Woche 13.07.15 - 19.07.15 (KW29)
Datum Zeit Temp. A. Feuchte A. Luftdruck Regen Wind Richtung Sonnenschein ET UV Solar Taupunkt Windchill Windben Empfang
13.07.2015 00:00 20,5 C 52 % 1013,5 hPa 0,0 l/m 1,6 km/h (1 Bft) W-SW 0,00 h 0,000 mm 0,0 UV-I 0 W/m 10,2 C 20,5 C 3,6 km/h (1 Bft) 0,00 %
13.07.2015 01:00 19,8 C 55 % 1014,0 hPa 0,0 l/m 3,0 km/h (1 Bft) W-SW 0,00 h 0,000 mm 0,0 UV-I 0 W/m 10,5 C 19,7 C 6,6 km/h (2 Bft) 0,00 %
13.07.2015 02:00 18,1 C 67 % 1014,8 hPa 0,0 l/m 2,3 km/h (1 Bft) N-NW 0,00 h 0,000 mm 0,0 UV-I 0 W/m 11,8 C 18,1 C 4,3 km/h (1 Bft) 0,00 %
13.07.2015 03:00 16,9 C 73 % 1015,1 hPa 0,0 l/m 1,1 km/h (1 Bft) O-NO 0,00 h 0,000 mm 0,0 UV-I 0 W/m 12,0 C 16,9 C 3,0 km/h (1 Bft) 0,00 %
13.07.2015 04:00 16,8 C 72 % 1015,4 hPa 0,0 l/m 0,6 km/h (0 Bft) NW 0,00 h 0,000 mm 0,0 UV-I 0 W/m 11,7 C 16,8 C 3,0 km/h (1 Bft) 0,00 %
13.07.2015 05:00 16,7 C 69 % 1015,6 hPa 0,0 l/m 3,3 km/h (1 Bft) W-NW 0,00 h 0,000 mm 0,0 UV-I 4 W/m 11,0 C 16,7 C 5,0 km/h (1 Bft) 0,00 %
13.07.2015 06:00 16,9 C 68 % 1016,0 hPa 0,0 l/m 2,3 km/h (1 Bft) W-SW 0,00 h 0,000 mm 0,0 UV-I 31 W/m 11,0 C 16,8 C 4,6 km/h (1 Bft) 0,00 %
13.07.2015 07:00 17,3 C 67 % 1016,3 hPa 0,0 l/m 1,8 km/h (1 Bft) N-NW 0,00 h 0,000 mm 1,0 UV-I 92 W/m 11,1 C 17,1 C 4,3 km/h (1 Bft) 0,00 %
13.07.2015 08:00 17,6 C 66 % 1016,7 hPa 0,0 l/m 3,3 km/h (1 Bft) NW 0,00 h 0,000 mm 1,0 UV-I 107 W/m 11,1 C 17,5 C 6,3 km/h (2 Bft) 0,00 %
13.07.2015 09:00 18,2 C 62 % 1017,0 hPa 0,0 l/m 3,3 km/h (1 Bft) W-SW 0,00 h 0,000 mm 1,0 UV-I 216 W/m 10,8 C 18,0 C 6,0 km/h (2 Bft) 0,00 %
13.07.2015 10:00 18,4 C 61 % 1017,4 hPa 0,0 l/m 3,8 km/h (1 Bft) W-SW 0,00 h 0,000 mm 1,4 UV-I 224 W/m 10,7 C 18,1 C 7,3 km/h (2 Bft) 0,00 %
13.07.2015 11:00 18,7 C 61 % 1017,2 hPa 0,0 l/m 2,1 km/h (1 Bft) W-SW 0,00 h 0,000 mm 1,5 UV-I 240 W/m 11,1 C 18,7 C 4,3 km/h (1 Bft) 0,00 %
13.07.2015 12:00 19,0 C 62 % 1016,7 hPa 0,0 l/m 2,9 km/h (1 Bft) NW 0,08 h 0,000 mm 1,4 UV-I 182 W/m 11,6 C 18,9 C 6,0 km/h (2 Bft) 0,00 %
13.07.2015 13:00 19,3 C 62 % 1016,5 hPa 0,0 l/m 2,6 km/h (1 Bft) N-NW 0,08 h 0,000 mm 1,5 UV-I 261 W/m 11,8 C 19,2 C 5,6 km/h (1 Bft) 0,00 %
13.07.2015 14:00 20,1 C 59 % 1016,2 hPa 0,0 l/m 4,2 km/h (1 Bft) S-SW 0,00 h 0,000 mm 1,2 UV-I 189 W/m 11,9 C 20,0 C 6,9 km/h (2 Bft) 0,00 %
13.07.2015 15:00 20,0 C 60 % 1016,1 hPa 0,0 l/m 1,6 km/h (1 Bft) W 0,00 h 0,000 mm 1,0 UV-I 50 W/m 11,9 C 20,0 C 3,0 km/h (1 Bft) 0,00 %
13.07.2015 16:00 18,6 C 71 % 1016,2 hPa 0,0 l/m 0,2 km/h (0 Bft) N 0,00 h 0,000 mm 1,0 UV-I 85 W/m 13,2 C 18,6 C 0,7 km/h (0 Bft) 0,00 %
13.07.2015 17:00 18,3 C 75 % 1015,9 hPa 0,0 l/m 1,0 km/h (0 Bft) W-NW 0,00 h 0,000 mm 1,0 UV-I 48 W/m 13,8 C 18,3 C 3,0 km/h (1 Bft) 0,00 %
13.07.2015 18:00 17,7 C 78 % 1016,1 hPa 0,3 l/m 1,9 km/h (1 Bft) W-NW 0,00 h 0,000 mm 0,0 UV-I 15 W/m 13,7 C 17,6 C 3,7 km/h (1 Bft) 0,00 %
13.07.2015 19:00 16,8 C 85 % 1016,8 hPa 0,0 l/m 0,9 km/h (0 Bft) W-SW 0,00 h 0,000 mm 0,0 UV-I 0 W/m 14,2 C 16,7 C 1,7 km/h (1 Bft) 0,00 %
13.07.2015 20:00 16,1 C 89 % 1017,2 hPa 0,0 l/m 0,3 km/h (0 Bft) W-SW 0,00 h 0,000 mm 0,0 UV-I 0 W/m 14,3 C 16,1 C 0,3 km/h (0 Bft) 0,00 %
13.07.2015 21:00 15,8 C 91 % 1017,6 hPa 0,0 l/m 0,8 km/h (0 Bft) W-SW 0,00 h 0,000 mm 0,0 UV-I 0 W/m 14,3 C 15,8 C 1,7 km/h (1 Bft) 0,00 %
13.07.2015 22:00 15,8 C 92 % 1017,5 hPa 0,0 l/m 0,0 km/h (0 Bft) N 0,00 h 0,000 mm 0,0 UV-I 0 W/m 14,5 C 15,8 C 0,4 km/h (0 Bft) 0,00 %
13.07.2015 23:00 15,9 C 92 % 1017,3 hPa 0,0 l/m 0,6 km/h (0 Bft) W-NW 0,00 h 0,000 mm 0,0 UV-I 0 W/m 14,6 C 15,9 C 1,3 km/h (1 Bft) 0,00 %
14.07.2015 00:00 16,0 C 90 % 1017,3 hPa 0,3 l/m 0,3 km/h (0 Bft) N 0,00 h 0,000 mm 0,0 UV-I 0 W/m 14,3 C 16,0 C 1,7 km/h (1 Bft) 0,00 %
14.07.2015 01:00 15,8 C 89 % 1017,3 hPa 0,3 l/m 2,5 km/h (1 Bft) W-SW 0,00 h 0,000 mm 0,0 UV-I 0 W/m 13,9 C 15,8 C 5,0 km/h (1 Bft) 0,00 %
14.07.2015 02:00 15,3 C 91 % 1017,1 hPa 0,0 l/m 0,7 km/h (0 Bft) NW 0,00 h 0,000 mm 0,0 UV-I 0 W/m 13,8 C 15,3 C 1,3 km/h (1 Bft) 0,00 %
14.07.2015 03:00 15,4 C 93 % 1016,8 hPa 0,3 l/m 0,3 km/h (0 Bft) NW 0,00 h 0,000 mm 0,0 UV-I 0 W/m 14,4 C 15,4 C 1,0 km/h (0 Bft) 0,00 %
14.07.2015 04:00 15,2 C 95 % 1016,8 hPa 0,3 l/m 0,4 km/h (0 Bft) W-SW 0,00 h 0,000 mm 0,0 UV-I 0 W/m 14,4 C 15,2 C 2,0 km/h (1 Bft) 0,00 %
14.07.2015 05:00 15,3 C 97 % 1016,9 hPa 0,0 l/m 1,0 km/h (0 Bft) W-SW 0,00 h 0,000 mm 0,0 UV-I 2 W/m 14,7 C 15,3 C 2,7 km/h (1 Bft) 0,00 %
14.07.2015 06:00 15,4 C 98 % 1017,0 hPa 0,9 l/m 0,9 km/h (0 Bft) S-SW 0,00 h 0,000 mm 0,0 UV-I 20 W/m 15,1 C 15,4 C 2,0 km/h (1 Bft) 0,00 %
14.07.2015 07:00 15,8 C 97 % 1017,0 hPa 0,0 l/m 0,5 km/h (0 Bft) W-NW 0,00 h 0,000 mm 1,0 UV-I 64 W/m 15,4 C 15,8 C 2,0 km/h (1 Bft) 0,00 %
14.07.2015 08:00 16,6 C 93 % 1016,8 hPa 0,0 l/m 1,8 km/h (1 Bft) NW 0,00 h 0,000 mm 1,0 UV-I 165 W/m 15,6 C 16,5 C 4,6 km/h (1 Bft) 0,00 %
14.07.2015 09:00 18,0 C 86 % 1016,6 hPa 0,0 l/m 1,7 km/h (1 Bft) W-SW 0,00 h 0,000 mm 1,0 UV-I 237 W/m 15,5 C 18,0 C 4,0 km/h (1 Bft) 0,00 %
14.07.2015 10:00 20,3 C 75 % 1016,0 hPa 0,0 l/m 4,0 km/h (1 Bft) W-SW 0,33 h 0,000 mm 2,5 UV-I 393 W/m 15,7 C 20,0 C 6,0 km/h (2 Bft) 0,00 %
14.07.2015 11:00 20,9 C 67 % 1015,9 hPa 0,0 l/m 2,9 km/h (1 Bft) NW 0,00 h 0,000 mm 1,5 UV-I 289 W/m 14,6 C 20,9 C 6,0 km/h (2 Bft) 0,00 %
14.07.2015 12:00 21,8 C 63 % 1015,9 hPa 0,0 l/m 2,2 km/h (1 Bft) S 0,58 h 0,000 mm 2,5 UV-I 531 W/m 14,5 C 21,8 C 4,6 km/h (1 Bft) 0,00 %
14.07.2015 13:00 23,0 C 60 % 1015,5 hPa 0,0 l/m 1,8 km/h (1 Bft) N-NW 0,00 h 0,000 mm 1,8 UV-I 252 W/m 14,8 C 23,0 C 4,6 km/h (1 Bft) 0,00 %
14.07.2015 14:00 22,7 C 61 % 1015,4 hPa 0,0 l/m 3,6 km/h (1 Bft) W-SW 0,00 h 0,000 mm 1,5 UV-I 336 W/m 14,8 C 22,6 C 5,6 km/h (1 Bft) 0,00 %
14.07.2015 15:00 23,3 C 60 % 1015,0 hPa 0,0 l/m 2,4 km/h (1 Bft) W-NW 0,17 h 0,000 mm 1,5 UV-I 398 W/m 15,2 C 23,3 C 5,0 km/h (1 Bft) 0,00 %
14.07.2015 16:00 24,1 C 56 % 1014,7 hPa 0,0 l/m 2,5 km/h (1 Bft) N-NW 0,00 h 0,000 mm 2,2 UV-I 239 W/m 14,8 C 24,1 C 5,3 km/h (1 Bft) 0,00 %
14.07.2015 17:00 23,6 C 58 % 1014,7 hPa 0,0 l/m 2,3 km/h (1 Bft) NW 0,00 h 0,000 mm 1,1 UV-I 136 W/m 14,9 C 23,6 C 4,0 km/h (1 Bft) 0,00 %
14.07.2015 18:00 23,1 C 60 % 1014,8 hPa 0,0 l/m 0,7 km/h (0 Bft) W-NW 0,00 h 0,000 mm 1,0 UV-I 119 W/m 14,9 C 23,1 C 2,3 km/h (1 Bft) 0,00 %
14.07.2015 19:00 22,9 C 61 % 1014,7 hPa 0,0 l/m 1,7 km/h (1 Bft) W-NW 0,00 h 0,000 mm 1,0 UV-I 18 W/m 15,1 C 22,9 C 3,0 km/h (1 Bft) 0,00 %
14.07.2015 20:00 22,0 C 64 % 1014,9 hPa 0,0 l/m 0,1 km/h (0 Bft) N 0,00 h 0,000 mm 0,0 UV-I 3 W/m 14,8 C 22,0 C 0,7 km/h (0 Bft) 0,00 %
14.07.2015 21:00 20,8 C 68 % 1015,6 hPa 0,0 l/m 0,1 km/h (0 Bft) N 0,00 h 0,000 mm 0,0 UV-I 0 W/m 14,6 C 20,8 C 0,7 km/h (0 Bft) 0,00 %
14.07.2015 22:00 19,8 C 73 % 1016,3 hPa 0,0 l/m 0,0 km/h (0 Bft) N 0,00 h 0,000 mm 0,0 UV-I 0 W/m 14,8 C 19,8 C 0,0 km/h (0 Bft) 0,00 %
14.07.2015 23:00 19,0 C 79 % 1016,8 hPa 0,0 l/m 0,0 km/h (0 Bft) N 0,00 h 0,000 mm 0,0 UV-I 0 W/m 15,3 C 19,0 C 0,0 km/h (0 Bft) 0,00 %
15.07.2015 00:00 18,4 C 82 % 1017,0 hPa 0,0 l/m 0,0 km/h (0 Bft) N 0,00 h 0,000 mm 0,0 UV-I 0 W/m 15,3 C 18,4 C 0,0 km/h (0 Bft) 0,00 %
15.07.2015 01:00 18,3 C 82 % 1017,0 hPa 0,0 l/m 0,0 km/h (0 Bft) N 0,00 h 0,000 mm 0,0 UV-I 0 W/m 15,2 C 18,3 C 0,0 km/h (0 Bft) 0,00 %
15.07.2015 02:00 18,0 C 83 % 1017,0 hPa 0,0 l/m 0,1 km/h (0 Bft) N 0,00 h 0,000 mm 0,0 UV-I 0 W/m 15,1 C 18,0 C 0,7 km/h (0 Bft) 0,00 %
15.07.2015 03:00 18,0 C 83 % 1017,0 hPa 0,0 l/m 0,3 km/h (0 Bft) SW 0,00 h 0,000 mm 0,0 UV-I 0 W/m 15,1 C 18,0 C 1,3 km/h (1 Bft) 0,00 %
15.07.2015 04:00 17,9 C 84 % 1017,2 hPa 0,0 l/m 0,8 km/h (0 Bft) W-SW 0,00 h 0,000 mm 0,0 UV-I 0 W/m 15,1 C 17,8 C 2,0 km/h (1 Bft) 0,00 %
15.07.2015 05:00 17,9 C 84 % 1017,9 hPa 0,0 l/m 0,5 km/h (0 Bft) W-SW 0,00 h 0,000 mm 0,0 UV-I 8 W/m 15,1 C 17,9 C 1,7 km/h (1 Bft) 0,00 %
15.07.2015 06:00 17,9 C 83 % 1018,3 hPa 0,0 l/m 0,0 km/h (0 Bft) N 0,00 h 0,000 mm 0,0 UV-I 46 W/m 15,0 C 17,9 C 0,0 km/h (0 Bft) 0,00 %
15.07.2015 07:00 19,2 C 78 % 1018,5 hPa 0,0 l/m 0,0 km/h (0 Bft) N 0,33 h 0,000 mm 1,0 UV-I 169 W/m 15,2 C 19,2 C 0,3 km/h (0 Bft) 0,00 %
15.07.2015 08:00 21,3 C 66 % 1018,5 hPa 0,0 l/m 3,0 km/h (1 Bft) W-SW 0,50 h 0,000 mm 1,5 UV-I 305 W/m 14,5 C 21,2 C 5,6 km/h (1 Bft) 0,00 %
15.07.2015 09:00 22,2 C 62 % 1018,6 hPa 0,0 l/m 2,0 km/h (1 Bft) N-NW 0,58 h 0,000 mm 1,6 UV-I 362 W/m 14,5 C 22,2 C 3,6 km/h (1 Bft) 0,00 %
15.07.2015 10:00 24,0 C 54 % 1018,3 hPa 0,0 l/m 4,6 km/h (1 Bft) NW 0,92 h 0,000 mm 3,1 UV-I 696 W/m 14,2 C 23,8 C 7,9 km/h (2 Bft) 0,00 %
15.07.2015 11:00 25,8 C 46 % 1018,0 hPa 0,0 l/m 2,6 km/h (1 Bft) SW 0,42 h 0,000 mm 3,5 UV-I 599 W/m 13,4 C 25,8 C 4,6 km/h (1 Bft) 0,00 %
15.07.2015 12:00 26,1 C 46 % 1017,7 hPa 0,0 l/m 2,5 km/h (1 Bft) W 0,58 h 0,000 mm 4,4 UV-I 675 W/m 13,5 C 26,0 C 4,0 km/h (1 Bft) 0,00 %
15.07.2015 13:00 26,1 C 46 % 1017,3 hPa 0,0 l/m 3,0 km/h (1 Bft) N-NW 0,42 h 0,000 mm 3,6 UV-I 660 W/m 13,6 C 26,0 C 5,6 km/h (1 Bft) 0,00 %
15.07.2015 14:00 27,8 C 43 % 1016,6 hPa 0,0 l/m 1,4 km/h (1 Bft) N-NW 1,00 h 0,000 mm 3,7 UV-I 997 W/m 14,2 C 27,8 C 3,0 km/h (1 Bft) 0,00 %
15.07.2015 15:00 28,1 C 42 % 1016,2 hPa 0,0 l/m 0,7 km/h (0 Bft) W-NW 0,92 h 0,000 mm 3,8 UV-I 810 W/m 13,8 C 28,1 C 2,7 km/h (1 Bft) 0,00 %
15.07.2015 16:00 28,2 C 41 % 1015,9 hPa 0,0 l/m 1,9 km/h (1 Bft) NW 0,92 h 0,000 mm 2,8 UV-I 768 W/m 13,6 C 28,2 C 4,0 km/h (1 Bft) 0,00 %
15.07.2015 17:00 28,3 C 41 % 1015,6 hPa 0,0 l/m 1,3 km/h (1 Bft) S-SW 1,00 h 0,000 mm 1,5 UV-I 751 W/m 13,7 C 28,3 C 3,0 km/h (1 Bft) 0,00 %
15.07.2015 18:00 28,4 C 41 % 1015,3 hPa 0,0 l/m 0,6 km/h (0 Bft) NW 1,00 h 0,000 mm 1,0 UV-I 567 W/m 13,8 C 28,4 C 1,7 km/h (1 Bft) 0,00 %
15.07.2015 19:00 27,2 C 43 % 1015,3 hPa 0,0 l/m 0,4 km/h (0 Bft) N 0,92 h 0,000 mm 1,0 UV-I 240 W/m 13,4 C 27,2 C 1,0 km/h (0 Bft) 0,00 %
15.07.2015 20:00 24,7 C 50 % 1015,9 hPa 0,0 l/m 0,0 km/h (0 Bft) N 0,00 h 0,000 mm 0,0 UV-I 13 W/m 13,5 C 24,7 C 0,0 km/h (0 Bft) 0,00 %
15.07.2015 21:00 20,9 C 65 % 1016,9 hPa 0,0 l/m 0,2 km/h (0 Bft) O-NO 0,00 h 0,000 mm 0,0 UV-I 0 W/m 14,0 C 20,9 C 0,7 km/h (0 Bft) 0,00 %
15.07.2015 22:00 19,1 C 73 % 1017,6 hPa 0,0 l/m 0,0 km/h (0 Bft) N 0,00 h 0,000 mm 0,0 UV-I 0 W/m 14,2 C 19,1 C 0,0 km/h (0 Bft) 0,00 %
15.07.2015 23:00 17,6 C 80 % 1018,1 hPa 0,0 l/m 0,0 km/h (0 Bft) N 0,00 h 0,000 mm 0,0 UV-I 0 W/m 14,2 C 17,6 C 0,0 km/h (0 Bft) 0,00 %
16.07.2015 00:00 16,6 C 82 % 1018,3 hPa 0,0 l/m 0,0 km/h (0 Bft) N 0,00 h 0,000 mm 0,0 UV-I 0 W/m 13,6 C 16,6 C 0,0 km/h (0 Bft) 0,00 %
16.07.2015 01:00 15,8 C 88 % 1018,5 hPa 0,0 l/m 0,0 km/h (0 Bft) N 0,00 h 0,000 mm 0,0 UV-I 0 W/m 13,7 C 15,8 C 0,0 km/h (0 Bft) 0,00 %
16.07.2015 02:00 15,1 C 90 % 1018,4 hPa 0,0 l/m 0,0 km/h (0 Bft) N 0,00 h 0,000 mm 0,0 UV-I 0 W/m 13,5 C 15,1 C 0,0 km/h (0 Bft) 0,00 %
16.07.2015 03:00 14,3 C 93 % 1018,5 hPa 0,0 l/m 0,0 km/h (0 Bft) N 0,00 h 0,000 mm 0,0 UV-I 0 W/m 13,1 C 14,3 C 0,0 km/h (0 Bft) 0,00 %
16.07.2015 04:00 14,4 C 94 % 1018,4 hPa 0,0 l/m 0,0 km/h (0 Bft) N 0,00 h 0,000 mm 0,0 UV-I 0 W/m 13,4 C 14,4 C 0,0 km/h (0 Bft) 0,00 %
16.07.2015 05:00 13,5 C 95 % 1018,5 hPa 0,0 l/m 0,0 km/h (0 Bft) N 0,17 h 0,000 mm 0,0 UV-I 21 W/m 12,7 C 13,5 C 0,0 km/h (0 Bft) 0,00 %
16.07.2015 06:00 16,6 C 84 % 1018,2 hPa 0,0 l/m 0,1 km/h (0 Bft) N 1,00 h 0,000 mm 1,0 UV-I 225 W/m 13,7 C 16,6 C 0,7 km/h (0 Bft) 0,00 %
16.07.2015 07:00 20,4 C 68 % 1017,5 hPa 0,0 l/m 0,2 km/h (0 Bft) O 1,00 h 0,000 mm 1,0 UV-I 388 W/m 14,3 C 20,4 C 1,0 km/h (0 Bft) 0,00 %
16.07.2015 08:00 23,4 C 58 % 1017,3 hPa 0,0 l/m 0,1 km/h (0 Bft) O-NO 1,00 h 0,000 mm 1,5 UV-I 458 W/m 14,6 C 23,4 C 0,7 km/h (0 Bft) 0,00 %
16.07.2015 09:00 25,0 C 53 % 1017,1 hPa 0,0 l/m 2,7 km/h (1 Bft) O-SO 1,00 h 0,000 mm 2,2 UV-I 567 W/m 14,7 C 25,0 C 5,0 km/h (1 Bft) 0,00 %
16.07.2015 10:00 27,0 C 47 % 1016,8 hPa 0,0 l/m 1,7 km/h (1 Bft) NO 1,00 h 0,000 mm 3,3 UV-I 714 W/m 14,8 C 27,0 C 3,7 km/h (1 Bft) 0,00 %
16.07.2015 11:00 28,8 C 42 % 1016,2 hPa 0,0 l/m 1,0 km/h (0 Bft) O-NO 1,00 h 0,000 mm 4,7 UV-I 823 W/m 14,6 C 28,8 C 2,3 km/h (1 Bft) 0,00 %
16.07.2015 12:00 29,1 C 39 % 1015,7 hPa 0,0 l/m 1,8 km/h (1 Bft) O-NO 1,00 h 0,000 mm 5,5 UV-I 884 W/m 13,7 C 29,1 C 4,0 km/h (1 Bft) 0,00 %
16.07.2015 13:00 30,0 C 34 % 1015,0 hPa 0,0 l/m 0,4 km/h (0 Bft) O 1,00 h 0,000 mm 5,3 UV-I 943 W/m 12,5 C 30,0 C 1,3 km/h (1 Bft) 0,00 %
16.07.2015 14:00 31,3 C 30 % 1014,2 hPa 0,0 l/m 0,4 km/h (0 Bft) O 1,00 h 0,000 mm 5,0 UV-I 960 W/m 11,8 C 31,3 C 1,3 km/h (1 Bft) 0,00 %
16.07.2015 15:00 32,0 C 31 % 1013,6 hPa 0,0 l/m 0,6 km/h (0 Bft) O-SO 1,00 h 0,000 mm 3,9 UV-I 927 W/m 12,4 C 32,0 C 2,3 km/h (1 Bft) 0,00 %
16.07.2015 16:00 32,1 C 30 % 1012,9 hPa 0,0 l/m 0,9 km/h (0 Bft) N-NW 1,00 h 0,000 mm 2,9 UV-I 837 W/m 12,2 C 32,1 C 2,0 km/h (1 Bft) 0,00 %
16.07.2015 17:00 32,3 C 30 % 1012,7 hPa 0,0 l/m 1,1 km/h (1 Bft) NW 1,00 h 0,000 mm 1,5 UV-I 659 W/m 12,6 C 32,2 C 2,3 km/h (1 Bft) 0,00 %
16.07.2015 18:00 31,8 C 29 % 1012,4 hPa 0,0 l/m 0,6 km/h (0 Bft) NW 1,00 h 0,000 mm 1,0 UV-I 363 W/m 11,3 C 31,8 C 1,6 km/h (1 Bft) 0,00 %
16.07.2015 19:00 31,6 C 29 % 1012,4 hPa 0,0 l/m 0,0 km/h (0 Bft) N 0,08 h 0,000 mm 1,0 UV-I 37 W/m 11,1 C 31,6 C 0,0 km/h (0 Bft) 0,00 %
16.07.2015 20:00 28,7 C 43 % 1012,9 hPa 0,0 l/m 0,0 km/h (0 Bft) N 0,00 h 0,000 mm 0,0 UV-I 0 W/m 14,7 C 28,7 C 0,0 km/h (0 Bft) 0,00 %
16.07.2015 21:00 24,6 C 51 % 1013,6 hPa 0,0 l/m 0,0 km/h (0 Bft) N 0,00 h 0,000 mm 0,0 UV-I 0 W/m 13,8 C 24,6 C 0,0 km/h (0 Bft) 0,00 %
16.07.2015 22:00 22,7 C 58 % 1014,2 hPa 0,0 l/m 0,0 km/h (0 Bft) N 0,00 h 0,000 mm 0,0 UV-I 0 W/m 14,1 C 22,7 C 0,0 km/h (0 Bft) 0,00 %
16.07.2015 23:00 22,0 C 64 % 1014,4 hPa 0,0 l/m 0,0 km/h (0 Bft) N 0,00 h 0,000 mm 0,0 UV-I 0 W/m 14,8 C 22,0 C 0,0 km/h (0 Bft) 0,00 %
17.07.2015 00:00 20,5 C 70 % 1014,7 hPa 0,0 l/m 0,0 km/h (0 Bft) N 0,00 h 0,000 mm 0,0 UV-I 0 W/m 14,8 C 20,5 C 0,0 km/h (0 Bft) 0,00 %
17.07.2015 01:00 19,3 C 77 % 1015,0 hPa 0,0 l/m 0,0 km/h (0 Bft) N 0,00 h 0,000 mm 0,0 UV-I 0 W/m 15,2 C 19,3 C 0,0 km/h (0 Bft) 0,00 %
17.07.2015 02:00 18,8 C 78 % 1015,2 hPa 0,0 l/m 0,0 km/h (0 Bft) N 0,00 h 0,000 mm 0,0 UV-I 0 W/m 15,0 C 18,8 C 0,0 km/h (0 Bft) 0,00 %
17.07.2015 03:00 17,9 C 83 % 1015,5 hPa 0,0 l/m 0,0 km/h (0 Bft) N 0,00 h 0,000 mm 0,0 UV-I 0 W/m 14,9 C 17,9 C 0,0 km/h (0 Bft) 0,00 %
17.07.2015 04:00 17,1 C 85 % 1015,9 hPa 0,0 l/m 0,0 km/h (0 Bft) N 0,00 h 0,000 mm 0,0 UV-I 0 W/m 14,6 C 17,1 C 0,0 km/h (0 Bft) 0,00 %
17.07.2015 05:00 16,6 C 85 % 1016,1 hPa 0,0 l/m 0,0 km/h (0 Bft) N 0,25 h 0,000 mm 0,0 UV-I 24 W/m 14,2 C 16,6 C 0,0 km/h (0 Bft) 0,00 %
17.07.2015 06:00 19,2 C 75 % 1015,3 hPa 0,0 l/m 0,0 km/h (0 Bft) N 1,00 h 0,000 mm 1,0 UV-I 162 W/m 14,6 C 19,2 C 0,0 km/h (0 Bft) 0,00 %
17.07.2015 07:00 24,3 C 57 % 1014,3 hPa 0,0 l/m 0,0 km/h (0 Bft) N 0,92 h 0,000 mm 1,0 UV-I 323 W/m 15,2 C 24,3 C 0,0 km/h (0 Bft) 0,00 %
17.07.2015 08:00 26,6 C 49 % 1014,4 hPa 0,0 l/m 0,3 km/h (0 Bft) NO 0,92 h 0,000 mm 1,4 UV-I 430 W/m 14,8 C 26,6 C 0,7 km/h (0 Bft) 0,00 %
17.07.2015 09:00 29,0 C 42 % 1014,5 hPa 0,0 l/m 0,5 km/h (0 Bft) O 1,00 h 0,000 mm 2,1 UV-I 580 W/m 14,7 C 29,0 C 1,0 km/h (0 Bft) 0,00 %
17.07.2015 10:00 31,0 C 40 % 1014,1 hPa 0,0 l/m 1,2 km/h (1 Bft) O-SO 1,00 h 0,000 mm 3,2 UV-I 721 W/m 15,9 C 31,0 C 2,7 km/h (1 Bft) 0,00 %
17.07.2015 11:00 32,6 C 36 % 1013,8 hPa 0,0 l/m 1,2 km/h (1 Bft) O 1,00 h 0,000 mm 4,5 UV-I 810 W/m 15,3 C 32,6 C 3,3 km/h (1 Bft) 0,00 %
17.07.2015 12:00 32,9 C 30 % 1013,8 hPa 0,0 l/m 2,4 km/h (1 Bft) O-NO 1,00 h 0,000 mm 5,0 UV-I 867 W/m 12,8 C 32,9 C 4,0 km/h (1 Bft) 0,00 %
17.07.2015 13:00 33,6 C 27 % 1013,4 hPa 0,0 l/m 2,9 km/h (1 Bft) O-SO 1,00 h 0,000 mm 5,0 UV-I 922 W/m 12,1 C 33,6 C 5,0 km/h (1 Bft) 0,00 %
17.07.2015 14:00 34,3 C 26 % 1012,9 hPa 0,0 l/m 0,9 km/h (0 Bft) O-SO 1,00 h 0,000 mm 4,2 UV-I 944 W/m 11,8 C 34,3 C 2,3 km/h (1 Bft) 0,00 %
17.07.2015 15:00 35,2 C 23 % 1012,4 hPa 0,0 l/m 1,7 km/h (1 Bft) N-NW 1,00 h 0,000 mm 3,6 UV-I 929 W/m 11,1 C 35,2 C 3,3 km/h (1 Bft) 0,00 %
17.07.2015 16:00 35,2 C 22 % 1011,6 hPa 0,0 l/m 0,4 km/h (0 Bft) NO 1,00 h 0,000 mm 2,6 UV-I 872 W/m 10,3 C 35,2 C 1,7 km/h (1 Bft) 0,00 %
17.07.2015 17:00 35,2 C 23 % 1011,0 hPa 0,0 l/m 0,5 km/h (0 Bft) NO 1,00 h 0,000 mm 1,5 UV-I 685 W/m 10,8 C 35,2 C 1,3 km/h (1 Bft) 0,00 %
17.07.2015 18:00 33,1 C 29 % 1011,0 hPa 0,0 l/m 0,2 km/h (0 Bft) N 0,58 h 0,000 mm 1,0 UV-I 231 W/m 12,6 C 33,1 C 1,0 km/h (0 Bft) 0,00 %
17.07.2015 19:00 30,5 C 35 % 1011,5 hPa 0,0 l/m 0,0 km/h (0 Bft) N 0,00 h 0,000 mm 1,0 UV-I 68 W/m 13,0 C 30,5 C 0,0 km/h (0 Bft) 0,00 %
17.07.2015 20:00 27,3 C 43 % 1012,3 hPa 0,0 l/m 0,0 km/h (0 Bft) N 0,00 h 0,000 mm 0,0 UV-I 7 W/m 13,7 C 27,3 C 0,0 km/h (0 Bft) 0,00 %
17.07.2015 21:00 25,1 C 49 % 1012,6 hPa 0,0 l/m 0,0 km/h (0 Bft) N 0,00 h 0,000 mm 0,0 UV-I 0 W/m 13,5 C 25,1 C 0,0 km/h (0 Bft) 0,00 %
17.07.2015 22:00 24,6 C 50 % 1013,5 hPa 0,0 l/m 1,5 km/h (1 Bft) W-SW 0,00 h 0,000 mm 0,0 UV-I 0 W/m 13,6 C 24,5 C 2,3 km/h (1 Bft) 0,00 %
17.07.2015 23:00 25,1 C 46 % 1014,7 hPa 0,0 l/m 1,4 km/h (1 Bft) N-NW 0,00 h 0,000 mm 0,0 UV-I 0 W/m 12,7 C 25,1 C 3,3 km/h (1 Bft) 0,00 %
18.07.2015 00:00 23,9 C 48 % 1015,4 hPa 0,0 l/m 0,0 km/h (0 Bft) N 0,00 h 0,000 mm 0,0 UV-I 0 W/m 12,3 C 23,9 C 0,3 km/h (0 Bft) 0,00 %
18.07.2015 01:00 22,8 C 53 % 1015,4 hPa 0,0 l/m 0,2 km/h (0 Bft) SO 0,00 h 0,000 mm 0,0 UV-I 0 W/m 12,8 C 22,8 C 0,7 km/h (0 Bft) 0,00 %
18.07.2015 02:00 22,0 C 57 % 1015,6 hPa 0,0 l/m 0,1 km/h (0 Bft) N 0,00 h 0,000 mm 0,0 UV-I 0 W/m 13,1 C 22,0 C 1,0 km/h (0 Bft) 0,00 %
18.07.2015 03:00 21,0 C 62 % 1015,7 hPa 0,0 l/m 0,0 km/h (0 Bft) N 0,00 h 0,000 mm 0,0 UV-I 0 W/m 13,4 C 21,0 C 0,0 km/h (0 Bft) 0,00 %
18.07.2015 04:00 20,1 C 67 % 1015,8 hPa 0,0 l/m 0,1 km/h (0 Bft) N 0,00 h 0,000 mm 0,0 UV-I 0 W/m 13,7 C 20,1 C 0,7 km/h (0 Bft) 0,00 %
18.07.2015 05:00 18,9 C 73 % 1016,2 hPa 0,0 l/m 0,0 km/h (0 Bft) N 0,00 h 0,000 mm 0,0 UV-I 9 W/m 13,9 C 18,9 C 0,3 km/h (0 Bft) 0,00 %
18.07.2015 06:00 18,6 C 75 % 1016,4 hPa 0,0 l/m 0,0 km/h (0 Bft) N 0,08 h 0,000 mm 1,0 UV-I 70 W/m 14,0 C 18,6 C 0,0 km/h (0 Bft) 0,00 %
18.07.2015 07:00 22,0 C 62 % 1015,4 hPa 0,0 l/m 0,0 km/h (0 Bft) N 0,83 h 0,000 mm 1,0 UV-I 259 W/m 14,4 C 22,0 C 0,0 km/h (0 Bft) 0,00 %
18.07.2015 08:00 25,2 C 51 % 1015,2 hPa 0,0 l/m 0,2 km/h (0 Bft) SW 1,00 h 0,000 mm 1,4 UV-I 434 W/m 14,4 C 25,2 C 1,0 km/h (0 Bft) 0,00 %
18.07.2015 09:00 27,8 C 44 % 1014,9 hPa 0,0 l/m 0,3 km/h (0 Bft) N-NW 1,00 h 0,000 mm 2,1 UV-I 570 W/m 14,3 C 27,8 C 1,3 km/h (1 Bft) 0,00 %
18.07.2015 10:00 29,8 C 39 % 1014,6 hPa 0,0 l/m 0,2 km/h (0 Bft) O-SO 1,00 h 0,000 mm 3,2 UV-I 705 W/m 14,2 C 29,8 C 1,0 km/h (0 Bft) 0,00 %
18.07.2015 11:00 31,3 C 36 % 1014,0 hPa 0,0 l/m 1,1 km/h (1 Bft) O-SO 1,00 h 0,000 mm 4,5 UV-I 810 W/m 14,2 C 31,3 C 2,7 km/h (1 Bft) 0,00 %
18.07.2015 12:00 32,0 C 32 % 1013,4 hPa 0,0 l/m 0,4 km/h (0 Bft) N-NW 1,00 h 0,000 mm 5,3 UV-I 892 W/m 13,1 C 32,0 C 1,0 km/h (0 Bft) 0,00 %
18.07.2015 13:00 33,2 C 30 % 1012,8 hPa 0,0 l/m 1,9 km/h (1 Bft) W-NW 1,00 h 0,000 mm 5,2 UV-I 937 W/m 13,1 C 33,2 C 4,0 km/h (1 Bft) 0,00 %
18.07.2015 14:00 33,8 C 30 % 1012,5 hPa 0,0 l/m 2,4 km/h (1 Bft) W-NW 1,00 h 0,000 mm 4,6 UV-I 950 W/m 13,7 C 33,8 C 4,6 km/h (1 Bft) 0,00 %
18.07.2015 15:00 34,0 C 31 % 1012,1 hPa 0,0 l/m 2,5 km/h (1 Bft) W 1,00 h 0,000 mm 3,6 UV-I 911 W/m 14,4 C 34,0 C 4,3 km/h (1 Bft) 0,00 %
18.07.2015 16:00 33,6 C 31 % 1011,8 hPa 0,0 l/m 1,4 km/h (1 Bft) N-NW 1,00 h 0,000 mm 2,5 UV-I 804 W/m 14,1 C 33,6 C 3,6 km/h (1 Bft) 0,00 %
18.07.2015 17:00 32,7 C 32 % 1011,3 hPa 0,0 l/m 1,6 km/h (1 Bft) SO 0,67 h 0,000 mm 1,5 UV-I 499 W/m 13,8 C 32,7 C 3,0 km/h (1 Bft) 0,00 %
18.07.2015 18:00 31,3 C 31 % 1011,5 hPa 0,0 l/m 0,1 km/h (0 Bft) N 0,25 h 0,000 mm 1,0 UV-I 188 W/m 12,3 C 31,3 C 1,3 km/h (1 Bft) 0,00 %
18.07.2015 19:00 29,6 C 37 % 1011,8 hPa 0,0 l/m 0,3 km/h (0 Bft) SW 0,00 h 0,000 mm 1,0 UV-I 13 W/m 13,1 C 29,6 C 1,0 km/h (0 Bft) 0,00 %
18.07.2015 20:00 27,1 C 43 % 1012,3 hPa 0,0 l/m 0,0 km/h (0 Bft) N 0,00 h 0,000 mm 0,0 UV-I 0 W/m 13,3 C 27,1 C 0,0 km/h (0 Bft) 0,00 %
18.07.2015 21:00 25,8 C 47 % 1013,0 hPa 0,0 l/m 0,3 km/h (0 Bft) N-NW 0,00 h 0,000 mm 0,0 UV-I 0 W/m 13,6 C 25,8 C 1,7 km/h (1 Bft) 0,00 %
18.07.2015 22:00 23,2 C 67 % 1013,5 hPa 0,3 l/m 0,5 km/h (0 Bft) O 0,00 h 0,000 mm 0,0 UV-I 0 W/m 16,8 C 23,2 C 1,3 km/h (1 Bft) 0,00 %
18.07.2015 23:00 21,2 C 78 % 1014,1 hPa 0,0 l/m 0,1 km/h (0 Bft) N 0,00 h 0,000 mm 0,0 UV-I 0 W/m 17,1 C 21,2 C 0,3 km/h (0 Bft) 0,00 %
19.07.2015 00:00 20,1 C 83 % 1014,2 hPa 0,0 l/m 0,0 km/h (0 Bft) N 0,00 h 0,000 mm 0,0 UV-I 0 W/m 17,1 C 20,1 C 0,0 km/h (0 Bft) 0,00 %
19.07.2015 01:00 19,5 C 86 % 1014,1 hPa 0,0 l/m 0,0 km/h (0 Bft) N 0,00 h 0,000 mm 0,0 UV-I 0 W/m 17,0 C 19,5 C 0,0 km/h (0 Bft) 0,00 %
19.07.2015 02:00 18,5 C 91 % 1014,2 hPa 0,0 l/m 0,0 km/h (0 Bft) N 0,00 h 0,000 mm 0,0 UV-I 0 W/m 17,0 C 18,5 C 0,0 km/h (0 Bft) 0,00 %
19.07.2015 03:00 17,6 C 93 % 1013,7 hPa 0,0 l/m 0,0 km/h (0 Bft) N 0,00 h 0,000 mm 0,0 UV-I 0 W/m 16,4 C 17,6 C 0,0 km/h (0 Bft) 0,00 %
19.07.2015 04:00 16,9 C 94 % 1013,4 hPa 0,0 l/m 0,0 km/h (0 Bft) N 0,00 h 0,000 mm 0,0 UV-I 0 W/m 15,9 C 16,9 C 0,0 km/h (0 Bft) 0,00 %
19.07.2015 05:00 16,4 C 94 % 1012,9 hPa 0,0 l/m 0,0 km/h (0 Bft) N 0,08 h 0,000 mm 0,0 UV-I 19 W/m 15,5 C 16,4 C 0,0 km/h (0 Bft) 0,00 %
19.07.2015 06:00 18,7 C 87 % 1011,9 hPa 0,0 l/m 0,0 km/h (0 Bft) N 1,00 h 0,000 mm 1,0 UV-I 134 W/m 16,4 C 18,7 C 0,0 km/h (0 Bft) 0,00 %
19.07.2015 07:00 21,9 C 72 % 1011,0 hPa 0,0 l/m 0,4 km/h (0 Bft) W 1,00 h 0,000 mm 1,0 UV-I 270 W/m 16,5 C 21,9 C 0,7 km/h (0 Bft) 0,00 %
19.07.2015 08:00 22,3 C 71 % 1010,9 hPa 0,0 l/m 0,2 km/h (0 Bft) W-NW 0,50 h 0,000 mm 1,2 UV-I 330 W/m 16,7 C 22,3 C 1,3 km/h (1 Bft) 0,00 %
19.07.2015 09:00 27,0 C 52 % 1009,5 hPa 0,0 l/m 0,2 km/h (0 Bft) O 1,00 h 0,000 mm 2,1 UV-I 585 W/m 16,2 C 27,0 C 0,7 km/h (0 Bft) 0,00 %
19.07.2015 10:00 28,7 C 47 % 1008,7 hPa 0,0 l/m 0,3 km/h (0 Bft) O 1,00 h 0,000 mm 3,0 UV-I 665 W/m 16,3 C 28,7 C 1,7 km/h (1 Bft) 0,00 %
19.07.2015 11:00 31,2 C 42 % 1008,2 hPa 0,0 l/m 0,8 km/h (0 Bft) O 1,00 h 0,000 mm 4,5 UV-I 808 W/m 16,6 C 31,2 C 2,0 km/h (1 Bft) 0,00 %
19.07.2015 12:00 31,8 C 39 % 1008,0 hPa 0,0 l/m 1,1 km/h (1 Bft) NW 1,00 h 0,000 mm 5,2 UV-I 871 W/m 16,0 C 31,8 C 2,3 km/h (1 Bft) 0,00 %
19.07.2015 13:00 32,8 C 37 % 1007,6 hPa 0,0 l/m 1,3 km/h (1 Bft) O-NO 0,92 h 0,000 mm 5,0 UV-I 878 W/m 16,1 C 32,8 C 3,3 km/h (1 Bft) 0,00 %
19.07.2015 14:00 33,9 C 34 % 1006,9 hPa 0,0 l/m 3,1 km/h (1 Bft) NW 0,83 h 0,000 mm 4,1 UV-I 824 W/m 15,8 C 33,9 C 4,6 km/h (1 Bft) 0,00 %
19.07.2015 15:00 33,9 C 32 % 1005,9 hPa 0,0 l/m 2,8 km/h (1 Bft) NW 1,00 h 0,000 mm 3,5 UV-I 921 W/m 15,0 C 33,9 C 5,3 km/h (1 Bft) 0,00 %
19.07.2015 16:00 33,7 C 32 % 1005,8 hPa 0,0 l/m 1,4 km/h (1 Bft) NW 0,75 h 0,000 mm 2,5 UV-I 491 W/m 14,8 C 33,7 C 3,3 km/h (1 Bft) 0,00 %
19.07.2015 17:00 32,4 C 35 % 1005,8 hPa 0,0 l/m 2,0 km/h (1 Bft) W-NW 1,00 h 0,000 mm 1,1 UV-I 678 W/m 14,8 C 32,4 C 3,6 km/h (1 Bft) 0,00 %
19.07.2015 18:00 32,5 C 33 % 1005,5 hPa 0,0 l/m 2,3 km/h (1 Bft) W-SW 1,00 h 0,000 mm 1,0 UV-I 411 W/m 14,3 C 32,5 C 5,6 km/h (1 Bft) 0,00 %
19.07.2015 19:00 30,9 C 35 % 1006,0 hPa 0,0 l/m 0,1 km/h (0 Bft) N 0,25 h 0,000 mm 1,0 UV-I 55 W/m 13,6 C 30,9 C 0,7 km/h (0 Bft) 0,00 %
19.07.2015 20:00 28,0 C 44 % 1006,5 hPa 0,0 l/m 0,0 km/h (0 Bft) N 0,00 h 0,000 mm 0,0 UV-I 6 W/m 14,5 C 28,0 C 0,0 km/h (0 Bft) 0,00 %
19.07.2015 21:00 25,5 C 51 % 1008,2 hPa 0,0 l/m 0,6 km/h (0 Bft) W-SW 0,00 h 0,000 mm 0,0 UV-I 0 W/m 14,5 C 25,5 C 1,0 km/h (0 Bft) 0,00 %
19.07.2015 22:00 25,5 C 47 % 1009,6 hPa 0,0 l/m 8,1 km/h (2 Bft) W-SW 0,00 h 0,000 mm 0,0 UV-I 0 W/m 13,3 C 25,0 C 12,2 km/h (2 Bft) 0,00 %
19.07.2015 23:00 22,2 C 62 % 1010,2 hPa 0,0 l/m 1,5 km/h (1 Bft) NO 0,00 h 0,000 mm 0,0 UV-I 0 W/m 14,6 C 22,2 C 3,3 km/h (1 Bft) 0,00 %
Min-Datum _ 16.07.15 17.07.15 19.07.15 - 13.07.15 - - - - - 17.07.15 16.07.15 13.07.15 13.07.15
_ Min-Zeit 05:25 17:10 18:00 - 00:10 - - - - - 17:15 05:25 00:10 00:00
Minimum _ 13,4 C 20 % 1005,1 hPa - 0,0 km/h (0 Bft) - - - - - 8,8 C 13,4 C 0,0 km/h (0 Bft) 0,00 %
Max-Datum _ 17.07.15 14.07.15 15.07.15 14.07.15 17.07.15 - 13.07.15 13.07.15 15.07.15 15.07.15 19.07.15 17.07.15 17.07.15 13.07.15
_ Max-Zeit 16:45 06:05 07:25 06:05 22:55 - 12:00 00:00 12:30 13:45 13:30 16:45 22:55 00:00
Maximum _ 35,6 C 98 % 1018,7 hPa 0,9 l/m 14,4 km/h
W-SW (3 Bft)
- 0,08 h 0,000 mm 6,0 UV-I 1217 W/m 17,7 C 35,6 C 19,8 km/h
O-NO (3 Bft)
0,00 %
Durchschnitt _ 23,4 C 60 % 1014,6 hPa #2,7 l/m 1,0 km/h (0 Bft) N-NW #59:50 h #0,000 mm 2,3 UV-I 426 W/m 14,0 C 23,3 C 2,2 km/h (1 Bft) 0,00 %